createdAt,value
2022-08-11T00:00:12.575Z,37.18
2022-08-11T00:02:46.885Z,37.87
2022-08-11T00:05:17.579Z,37.76
2022-08-11T00:07:53.880Z,38.11
2022-08-11T00:10:23.958Z,37.94
2022-08-11T00:13:00.451Z,38.09
2022-08-11T00:15:30.239Z,38.45
2022-08-11T00:18:00.600Z,37.96
2022-08-11T00:20:37.161Z,38.21
2022-08-11T00:23:08.939Z,38.70
2022-08-11T00:25:42.269Z,38.37
2022-08-11T00:28:27.558Z,38.97
2022-08-11T00:30:58.828Z,37.95
2022-08-11T00:33:44.085Z,38.29
2022-08-11T00:36:16.124Z,39.31
2022-08-11T00:38:46.129Z,39.47
2022-08-11T00:41:35.266Z,40.07
2022-08-11T00:44:21.879Z,39.53
2022-08-11T00:47:19.337Z,39.22
2022-08-11T00:50:25.650Z,39.24
2022-08-11T00:53:31.079Z,40.08
2022-08-11T00:56:11.810Z,39.70
2022-08-11T00:58:58.328Z,40.25
2022-08-11T01:01:38.918Z,40.11
2022-08-11T01:04:09.680Z,39.50
2022-08-11T01:06:59.978Z,41.17
2022-08-11T01:09:52.728Z,40.13
2022-08-11T01:12:40.428Z,40.25
2022-08-11T01:15:26.967Z,40.68
2022-08-11T01:18:22.869Z,40.91
2022-08-11T01:21:14.449Z,40.47
2022-08-11T01:24:13.309Z,40.83
2022-08-11T01:26:44.098Z,40.44
2022-08-11T01:29:49.620Z,40.37
2022-08-11T01:32:51.470Z,40.75
2022-08-11T01:35:47.278Z,40.01
2022-08-11T01:38:52.878Z,39.55
2022-08-11T01:41:52.858Z,39.76
2022-08-11T01:44:38.981Z,41.08
2022-08-11T01:47:54.276Z,40.76
2022-08-11T01:50:31.728Z,39.97
2022-08-11T01:53:27.839Z,41.11
2022-08-11T01:56:23.207Z,40.04
2022-08-11T01:59:03.148Z,40.98
2022-08-11T02:01:36.839Z,41.03
2022-08-11T02:04:26.648Z,40.00
2022-08-11T02:07:09.045Z,40.49
2022-08-11T02:09:55.491Z,40.51
2022-08-11T02:12:53.779Z,39.90
2022-08-11T02:15:39.302Z,39.93
2022-08-11T02:18:14.801Z,41.11
2022-08-11T02:21:10.136Z,40.65
2022-08-11T02:24:06.566Z,41.45
2022-08-11T02:26:41.847Z,42.15
2022-08-11T02:29:24.832Z,40.68
2022-08-11T02:32:45.169Z,40.55
2022-08-11T02:38:06.269Z,40.13
2022-08-11T02:40:49.078Z,39.14
2022-08-11T02:43:29.008Z,39.54
2022-08-11T02:46:18.727Z,40.52
2022-08-11T02:49:19.258Z,40.62
2022-08-11T02:52:03.650Z,40.67
2022-08-11T02:54:45.520Z,40.28
2022-08-11T02:57:19.199Z,40.16
2022-08-11T02:59:55.668Z,41.26
2022-08-11T03:02:32.303Z,41.92
2022-08-11T03:05:17.172Z,42.88
2022-08-11T03:07:58.900Z,43.34
2022-08-11T03:10:41.649Z,43.12
2022-08-11T03:13:38.628Z,43.12
2022-08-11T03:16:43.559Z,43.55
2022-08-11T03:19:16.563Z,43.92
2022-08-11T03:22:22.928Z,44.47
2022-08-11T03:25:04.365Z,44.03
2022-08-11T03:28:10.428Z,45.89
2022-08-11T03:30:51.038Z,44.13
2022-08-11T03:33:44.297Z,47.14
2022-08-11T03:37:14.911Z,45.32
2022-08-11T03:39:55.545Z,47.17
2022-08-11T03:42:41.538Z,47.48
2022-08-11T03:45:37.425Z,46.61
2022-08-11T03:48:32.241Z,48.54
2022-08-11T03:51:13.259Z,47.96
2022-08-11T03:54:17.180Z,48.20
2022-08-11T03:57:00.708Z,48.88
2022-08-11T03:59:41.560Z,49.39
2022-08-11T04:02:22.052Z,49.37
2022-08-11T04:05:21.018Z,49.43
2022-08-11T04:08:35.655Z,50.91
2022-08-11T04:11:28.725Z,49.39
2022-08-11T04:14:49.218Z,50.33
2022-08-11T04:17:35.891Z,49.15
2022-08-11T04:20:30.260Z,49.93
2022-08-11T04:24:35.528Z,49.41
2022-08-11T04:26:35.897Z,51.52
2022-08-11T04:29:25.031Z,49.11
2022-08-11T04:32:32.175Z,48.04
2022-08-11T04:35:17.701Z,48.27
2022-08-11T04:38:03.938Z,46.66
2022-08-11T04:40:50.520Z,45.32
2022-08-11T04:44:06.351Z,44.77
2022-08-11T04:46:48.490Z,44.16
2022-08-11T04:49:59.641Z,43.42
2022-08-11T04:53:01.919Z,43.69
2022-08-11T04:56:10.312Z,42.00
2022-08-11T04:59:12.270Z,42.08
2022-08-11T05:02:19.062Z,40.35
2022-08-11T05:05:18.300Z,41.88
2022-08-11T05:08:10.789Z,41.48
2022-08-11T05:10:54.409Z,41.47
2022-08-11T05:13:49.660Z,39.77
2022-08-11T05:16:48.639Z,38.87
2022-08-11T05:19:39.448Z,38.78
2022-08-11T05:22:32.564Z,39.03
2022-08-11T05:26:45.270Z,39.01
2022-08-11T05:28:54.129Z,38.54
2022-08-11T05:31:51.219Z,37.82
2022-08-11T05:34:53.338Z,35.80
2022-08-11T05:37:30.173Z,35.99
2022-08-11T05:40:25.053Z,35.08
2022-08-11T05:43:18.579Z,34.50
2022-08-11T05:46:16.310Z,35.41
2022-08-11T05:49:02.642Z,34.07
2022-08-11T05:52:05.738Z,33.52
2022-08-11T05:55:05.376Z,33.95
2022-08-11T05:57:45.479Z,33.21
2022-08-11T06:00:19.655Z,32.19
2022-08-11T06:02:55.566Z,31.95
2022-08-11T06:05:38.533Z,32.90
2022-08-11T06:08:15.370Z,32.97
2022-08-11T06:10:45.349Z,31.76
2022-08-11T06:13:17.772Z,32.56
2022-08-11T06:15:48.882Z,32.37
2022-08-11T06:18:17.650Z,32.10
2022-08-11T06:20:56.543Z,33.29
2022-08-11T06:23:32.009Z,34.68
2022-08-11T06:26:00.518Z,32.26
2022-08-11T06:28:34.170Z,32.22
2022-08-11T06:31:03.880Z,31.00
2022-08-11T06:33:55.607Z,29.33
2022-08-11T06:36:35.072Z,29.94
2022-08-11T06:39:29.702Z,31.07
2022-08-11T06:42:07.159Z,31.56
2022-08-11T06:44:44.061Z,32.75
2022-08-11T06:47:13.538Z,30.79
2022-08-11T06:50:05.249Z,29.38
2022-08-11T06:52:36.472Z,29.31
2022-08-11T06:55:55.596Z,31.07
2022-08-11T06:58:18.498Z,29.76
2022-08-11T07:00:48.689Z,29.54
2022-08-11T07:03:18.191Z,29.57
2022-08-11T07:05:56.498Z,29.30
2022-08-11T07:09:01.231Z,29.96
2022-08-11T07:12:22.220Z,29.21
2022-08-11T07:15:13.091Z,28.64
2022-08-11T07:17:49.667Z,27.41
2022-08-11T07:20:36.701Z,28.18
2022-08-11T07:23:26.229Z,26.91
2022-08-11T07:26:13.047Z,27.34
2022-08-11T07:28:59.092Z,26.22
2022-08-11T07:31:36.956Z,24.79
2022-08-11T07:34:20.378Z,24.66
2022-08-11T07:37:01.206Z,24.96
2022-08-11T07:39:32.701Z,24.87
2022-08-11T07:42:06.741Z,25.70
2022-08-11T07:44:55.501Z,26.94
2022-08-11T07:47:41.788Z,24.98
2022-08-11T07:50:28.840Z,23.90
2022-08-11T07:53:00.352Z,24.07
2022-08-11T07:55:51.114Z,24.09
2022-08-11T07:58:44.080Z,24.76
2022-08-11T08:01:39.070Z,22.71
2022-08-11T08:04:27.749Z,22.04
2022-08-11T08:07:15.330Z,21.00
2022-08-11T08:10:02.370Z,21.83
2022-08-11T08:12:49.643Z,21.89
2022-08-11T08:15:37.044Z,21.18
2022-08-11T08:18:20.671Z,22.20
2022-08-11T08:20:55.741Z,22.13
2022-08-11T08:23:35.439Z,21.13
2022-08-11T08:26:27.202Z,21.05
2022-08-11T08:29:16.251Z,22.78
2022-08-11T08:31:45.359Z,23.12
2022-08-11T08:34:13.404Z,22.07
2022-08-11T08:36:44.551Z,21.26
2022-08-11T08:39:13.844Z,22.09
2022-08-11T08:41:43.042Z,23.12
2022-08-11T08:47:02.024Z,25.12
2022-08-11T08:49:51.250Z,25.09
2022-08-11T08:52:30.921Z,23.81
2022-08-11T08:55:03.870Z,25.13
2022-08-11T08:57:38.859Z,23.10
2022-08-11T09:00:12.509Z,21.87
2022-08-11T09:02:41.651Z,21.69
2022-08-11T09:05:10.489Z,22.63
2022-08-11T09:07:40.642Z,22.11
2022-08-11T09:10:11.610Z,22.96
2022-08-11T09:12:42.552Z,23.63
2022-08-11T09:15:12.420Z,25.98
2022-08-11T09:17:41.988Z,22.85
2022-08-11T09:20:20.471Z,23.01
2022-08-11T09:26:16.663Z,22.86
2022-08-11T09:28:45.908Z,23.72
2022-08-11T09:31:15.450Z,22.34
2022-08-11T09:33:44.169Z,22.33
2022-08-11T09:36:32.044Z,21.85
2022-08-11T09:39:19.852Z,21.29
2022-08-11T09:42:01.585Z,20.32
2022-08-11T09:44:53.270Z,21.46
2022-08-11T09:47:29.108Z,21.06
2022-08-11T09:50:02.685Z,20.78
2022-08-11T09:52:52.199Z,20.49
2022-08-11T09:55:28.830Z,21.09
2022-08-11T09:58:41.807Z,19.33
2022-08-11T10:01:05.569Z,19.67
2022-08-11T10:03:40.298Z,18.36
2022-08-11T10:06:34.457Z,20.59
2022-08-11T10:09:05.451Z,20.92
2022-08-11T10:11:35.330Z,20.89
2022-08-11T10:14:33.406Z,22.79
2022-08-11T10:17:08.502Z,23.55
2022-08-11T10:19:38.125Z,23.85
2022-08-11T10:22:27.619Z,23.55
2022-08-11T10:25:15.442Z,23.67
2022-08-11T10:28:18.421Z,22.87
2022-08-11T10:31:05.740Z,23.10
2022-08-11T10:34:07.488Z,21.88
2022-08-11T10:36:43.490Z,20.65
2022-08-11T10:39:18.107Z,21.78
2022-08-11T10:42:12.157Z,22.08
2022-08-11T10:44:48.474Z,21.62
2022-08-11T10:47:35.454Z,21.07
2022-08-11T10:50:26.730Z,22.08
2022-08-11T10:53:15.341Z,22.02
2022-08-11T10:58:51.600Z,22.57
2022-08-11T11:01:30.987Z,21.64
2022-08-11T11:04:02.623Z,21.53
2022-08-11T11:06:45.489Z,21.40
2022-08-11T11:09:32.803Z,20.51
2022-08-11T11:12:30.874Z,19.93
2022-08-11T11:15:18.114Z,17.89
2022-08-11T11:17:57.788Z,18.03
2022-08-11T11:20:34.696Z,16.65
2022-08-11T11:23:20.329Z,18.26
2022-08-11T11:26:27.502Z,18.13
2022-08-11T11:29:10.593Z,18.00
2022-08-11T11:32:15.705Z,18.84
2022-08-11T11:35:01.612Z,20.93
2022-08-11T11:37:35.754Z,19.70
2022-08-11T11:40:15.469Z,20.19
2022-08-11T11:42:47.249Z,19.29
2022-08-11T11:45:22.696Z,19.09
2022-08-11T11:47:55.567Z,19.53
2022-08-11T11:50:25.775Z,20.33
2022-08-11T11:53:04.218Z,20.17
2022-08-11T11:55:32.350Z,20.56
2022-08-11T11:58:22.042Z,19.64
2022-08-11T12:01:10.259Z,20.27
2022-08-11T12:03:40.066Z,20.39
2022-08-11T12:06:09.091Z,20.20
2022-08-11T12:08:37.600Z,19.74
2022-08-11T12:11:26.830Z,20.31
2022-08-11T12:13:57.530Z,20.05
2022-08-11T12:16:34.727Z,20.92
2022-08-11T12:19:08.317Z,21.31
2022-08-11T12:21:37.491Z,20.52
2022-08-11T12:24:29.450Z,20.08
2022-08-11T12:27:18.272Z,19.24
2022-08-11T12:30:08.625Z,19.18
2022-08-11T12:32:40.216Z,19.50
2022-08-11T12:35:08.776Z,17.65
2022-08-11T12:37:45.453Z,18.02
2022-08-11T12:40:42.160Z,19.27
2022-08-11T12:43:41.387Z,19.13
2022-08-11T12:46:38.872Z,20.13
2022-08-11T12:49:32.552Z,20.05
2022-08-11T12:52:14.914Z,20.08
2022-08-11T12:55:00.151Z,20.30
2022-08-11T12:57:50.686Z,21.29
2022-08-11T13:00:38.253Z,21.48
2022-08-11T13:03:27.599Z,21.38
2022-08-11T13:06:02.887Z,20.66
2022-08-11T13:08:35.608Z,21.36
2022-08-11T13:11:22.973Z,20.86
2022-08-11T13:13:57.172Z,21.74
2022-08-11T13:16:53.020Z,20.39
2022-08-11T13:19:21.639Z,19.35
2022-08-11T13:21:50.492Z,19.21
2022-08-11T13:24:19.281Z,20.59
2022-08-11T13:26:50.107Z,20.18
2022-08-11T13:29:23.571Z,20.40
2022-08-11T13:31:53.462Z,20.45
2022-08-11T13:34:23.692Z,20.18
2022-08-11T13:36:53.468Z,21.66
2022-08-11T13:39:27.355Z,21.43
2022-08-11T13:41:57.061Z,21.29
2022-08-11T13:44:27.624Z,21.28
2022-08-11T13:47:04.736Z,21.48
2022-08-11T13:49:36.025Z,20.80
2022-08-11T13:52:13.271Z,21.40
2022-08-11T13:54:42.582Z,20.93
2022-08-11T13:57:13.837Z,21.32
2022-08-11T14:00:12.226Z,21.43
2022-08-11T14:02:43.943Z,21.61
2022-08-11T14:05:15.985Z,22.87
2022-08-11T14:07:52.791Z,23.45
2022-08-11T14:10:22.422Z,23.92
2022-08-11T14:13:13.130Z,24.58
2022-08-11T14:15:44.750Z,24.53
2022-08-11T14:18:21.678Z,24.87
2022-08-11T14:21:12.183Z,24.29
2022-08-11T14:23:43.198Z,25.70
2022-08-11T14:26:24.026Z,25.04
2022-08-11T14:29:02.562Z,24.75
2022-08-11T14:31:32.532Z,24.40
2022-08-11T14:34:05.961Z,24.58
2022-08-11T14:36:45.503Z,24.24
2022-08-11T14:39:17.422Z,24.72
2022-08-11T14:42:16.251Z,24.17
2022-08-11T14:45:20.322Z,23.87
2022-08-11T14:47:53.190Z,24.54
2022-08-11T14:50:25.611Z,25.25
2022-08-11T14:52:57.251Z,25.19
2022-08-11T14:55:46.293Z,24.75
2022-08-11T14:58:18.763Z,25.04
2022-08-11T15:00:47.680Z,25.92
2022-08-11T15:03:15.948Z,25.57
2022-08-11T15:06:02.710Z,25.29
2022-08-11T15:08:54.904Z,25.25
2022-08-11T15:11:50.771Z,25.56
2022-08-11T15:14:39.640Z,25.14
2022-08-11T15:17:09.916Z,25.89
2022-08-11T15:20:00.780Z,24.44
2022-08-11T15:22:47.729Z,23.54
2022-08-11T15:25:15.872Z,25.32
2022-08-11T15:28:03.203Z,25.31
2022-08-11T15:30:50.567Z,24.54
2022-08-11T15:33:38.723Z,24.58
2022-08-11T15:36:28.020Z,24.25
2022-08-11T15:38:59.209Z,23.76
2022-08-11T15:42:04.190Z,24.31
2022-08-11T15:45:02.605Z,23.97
2022-08-11T15:47:38.360Z,23.96
2022-08-11T15:50:12.040Z,24.06
2022-08-11T15:52:49.560Z,24.19
2022-08-11T15:55:17.858Z,23.91
2022-08-11T15:58:06.499Z,23.54
2022-08-11T16:00:59.004Z,23.87
2022-08-11T16:04:07.562Z,24.09
2022-08-11T16:06:49.287Z,24.06
2022-08-11T16:09:25.361Z,23.60
2022-08-11T16:11:59.042Z,23.60
2022-08-11T16:14:46.968Z,24.52
2022-08-11T16:17:17.669Z,24.09
2022-08-11T16:19:47.169Z,24.25
2022-08-11T16:22:17.874Z,24.02
2022-08-11T16:27:06.208Z,24.48
2022-08-11T16:27:41.322Z,24.88
2022-08-11T16:30:10.830Z,24.80
2022-08-11T16:32:40.339Z,24.57
2022-08-11T16:35:30.141Z,25.17
2022-08-11T16:38:18.520Z,24.89
2022-08-11T16:40:47.703Z,25.05
2022-08-11T16:43:37.508Z,25.24
2022-08-11T16:46:19.517Z,25.13
2022-08-11T16:48:49.808Z,25.39
2022-08-11T16:51:20.978Z,25.81
2022-08-11T16:54:03.969Z,26.23
2022-08-11T16:56:43.095Z,25.99
2022-08-11T16:59:19.678Z,25.73
2022-08-11T17:01:47.581Z,25.78
2022-08-11T17:05:02.378Z,26.39
2022-08-11T17:07:49.442Z,26.74
2022-08-11T17:11:03.786Z,26.93
2022-08-11T17:13:44.022Z,27.36
2022-08-11T17:16:15.090Z,27.71
2022-08-11T17:18:45.792Z,28.61
2022-08-11T17:21:21.201Z,29.46
2022-08-11T17:23:55.262Z,28.55
2022-08-11T17:26:57.268Z,29.24
2022-08-11T17:29:33.680Z,28.72
2022-08-11T17:32:57.289Z,28.67
2022-08-11T17:35:33.320Z,29.70
2022-08-11T17:38:19.460Z,29.93
2022-08-11T17:41:18.465Z,31.65
2022-08-11T17:44:12.179Z,32.77
2022-08-11T17:47:05.248Z,33.91
2022-08-11T17:49:37.931Z,34.81
2022-08-11T17:52:25.649Z,35.76
2022-08-11T17:55:13.661Z,35.50
2022-08-11T17:58:00.493Z,35.92
2022-08-11T18:00:29.593Z,36.40
2022-08-11T18:03:17.888Z,36.21
2022-08-11T18:05:47.368Z,36.21
2022-08-11T18:08:35.169Z,36.61
2022-08-11T18:12:06.545Z,36.78
2022-08-11T18:14:30.952Z,36.33
2022-08-11T18:17:17.220Z,36.88
2022-08-11T18:20:04.029Z,37.29
2022-08-11T18:22:52.761Z,36.49
2022-08-11T18:25:45.354Z,36.94
2022-08-11T18:28:34.768Z,35.98
2022-08-11T18:31:22.465Z,36.10
2022-08-11T18:34:13.281Z,35.93
2022-08-11T18:37:07.011Z,36.34
2022-08-11T18:39:56.829Z,36.61
2022-08-11T18:42:43.903Z,36.93
2022-08-11T18:45:30.946Z,36.84
2022-08-11T18:48:34.169Z,37.31
2022-08-11T18:51:30.401Z,36.93
2022-08-11T18:54:26.735Z,36.97
2022-08-11T18:57:15.700Z,36.71
2022-08-11T19:00:03.498Z,36.82
2022-08-11T19:02:51.382Z,36.80
2022-08-11T19:06:33.773Z,36.83
2022-08-11T19:08:49.054Z,36.80
2022-08-11T19:11:36.527Z,36.54
2022-08-11T19:14:31.328Z,36.33
2022-08-11T19:17:45.125Z,36.64
2022-08-11T19:20:30.919Z,36.77
2022-08-11T19:23:18.249Z,35.93
2022-08-11T19:26:05.171Z,35.50
2022-08-11T19:28:53.229Z,36.70
2022-08-11T19:31:44.357Z,36.43
2022-08-11T19:34:35.499Z,36.47
2022-08-11T19:37:25.217Z,36.53
2022-08-11T19:40:16.701Z,36.49
2022-08-11T19:43:04.150Z,36.54
2022-08-11T19:46:05.058Z,36.24
2022-08-11T19:48:51.830Z,36.10
2022-08-11T19:51:39.350Z,36.01
2022-08-11T19:54:26.448Z,36.53
2022-08-11T19:57:16.310Z,36.57
2022-08-11T20:00:03.182Z,36.23
2022-08-11T20:02:50.760Z,36.46
2022-08-11T20:05:37.906Z,37.36
2022-08-11T20:08:42.400Z,37.00
2022-08-11T20:11:30.915Z,37.49
2022-08-11T20:14:18.240Z,37.03
2022-08-11T20:17:05.442Z,36.78
2022-08-11T20:19:57.204Z,39.26
2022-08-11T20:22:45.940Z,37.33
2022-08-11T20:25:33.423Z,37.54
2022-08-11T20:28:21.782Z,38.45
2022-08-11T20:31:09.632Z,37.75
2022-08-11T20:33:57.392Z,36.98
2022-08-11T20:36:47.605Z,39.90
2022-08-11T20:39:43.556Z,38.76
2022-08-11T20:42:30.931Z,38.81
2022-08-11T20:45:23.569Z,39.57
2022-08-11T20:48:15.131Z,40.79
2022-08-11T20:51:06.034Z,40.16
2022-08-11T20:53:58.930Z,40.93
2022-08-11T20:56:53.770Z,40.27
2022-08-11T20:59:49.450Z,40.09
2022-08-11T21:02:44.691Z,40.42
2022-08-11T21:06:09.625Z,40.61
2022-08-11T21:08:41.846Z,41.50
2022-08-11T21:11:29.370Z,42.37
2022-08-11T21:14:16.481Z,41.88
2022-08-11T21:17:25.941Z,42.37
2022-08-11T21:20:20.744Z,41.70
2022-08-11T21:23:23.732Z,42.03
2022-08-11T21:26:17.671Z,42.63
2022-08-11T21:29:04.594Z,41.87
2022-08-11T21:31:52.791Z,43.04
2022-08-11T21:34:41.022Z,42.54
2022-08-11T21:37:29.190Z,41.86
2022-08-11T21:40:18.350Z,41.70
2022-08-11T21:43:07.472Z,41.30
2022-08-11T21:45:56.299Z,41.26
2022-08-11T21:48:45.399Z,40.43
2022-08-11T21:51:31.800Z,40.77
2022-08-11T21:54:18.809Z,40.57
2022-08-11T21:57:06.179Z,40.88
2022-08-11T22:00:19.080Z,40.57
2022-08-11T22:03:06.176Z,40.59
2022-08-11T22:05:53.242Z,40.78
2022-08-11T22:08:39.962Z,41.37
2022-08-11T22:11:31.827Z,41.29
2022-08-11T22:14:20.650Z,40.62
2022-08-11T22:17:07.095Z,41.62
2022-08-11T22:19:55.893Z,41.07
2022-08-11T22:22:52.127Z,41.35
2022-08-11T22:25:51.585Z,41.94
2022-08-11T22:28:40.672Z,40.98
2022-08-11T22:31:27.861Z,42.25
2022-08-11T22:34:14.141Z,41.40
2022-08-11T22:37:00.669Z,43.05
2022-08-11T22:39:59.742Z,41.89
2022-08-11T22:42:51.366Z,41.60
2022-08-11T22:45:38.800Z,42.09
2022-08-11T22:48:26.480Z,41.66
2022-08-11T22:51:13.841Z,42.52
2022-08-11T22:54:02.110Z,43.41
2022-08-11T22:56:49.720Z,42.97
2022-08-11T22:59:38.240Z,43.47
2022-08-11T23:02:25.732Z,43.41
2022-08-11T23:05:13.062Z,43.19
2022-08-11T23:08:00.420Z,43.75
2022-08-11T23:10:47.165Z,43.48
2022-08-11T23:13:34.502Z,44.52
2022-08-11T23:16:21.650Z,45.85
2022-08-11T23:19:08.639Z,43.29
2022-08-11T23:21:56.248Z,44.36
2022-08-11T23:24:44.831Z,45.04
2022-08-11T23:27:33.081Z,45.55
2022-08-11T23:30:20.639Z,45.72
2022-08-11T23:33:11.930Z,45.58
2022-08-11T23:36:04.724Z,47.69
2022-08-11T23:38:52.094Z,46.61
2022-08-11T23:41:39.120Z,46.52
2022-08-11T23:44:27.162Z,45.87
2022-08-11T23:47:15.459Z,45.14
2022-08-11T23:50:03.260Z,44.32
2022-08-11T23:52:49.839Z,45.36
2022-08-11T23:55:39.990Z,44.71
2022-08-11T23:58:26.882Z,45.37
